Time;durP1;ratioP1;P1;durP2;ratioP2;P2;SDS_P1;SDS_P2;PMS_P1;PMS_P2;Temp;Humidity;BMP_temperature;BMP_pressure;BME280_temperature;BME280_humidity;BME280_pressure;Samples;Min_cycle;Max_cycle;Signal;HPM_P1;HPM_P2
2021/11/18 00:00:17;;;;;;;9.93;4.93;;;;;;;-145.06;0.00;60892.56;4903381;28;20353;-88
2021/11/18 00:02:56;;;;;;;8.90;4.97;;;;;;;-145.06;0.00;60892.56;4915379;28;20032;-88
2021/11/18 00:05:35;;;;;;;9.38;4.88;;;;;;;-145.06;0.00;60892.56;4912065;28;20058;-88
2021/11/18 00:08:15;;;;;;;7.97;4.30;;;;;;;-145.06;0.00;60892.56;4896973;28;20375;-88
2021/11/18 00:10:57;;;;;;;7.63;5.20;;;;;;;-145.06;0.00;60892.56;4918472;28;20047;-87
2021/11/18 00:13:40;;;;;;;9.93;4.93;;;;;;;-145.06;0.00;60892.56;4917716;28;20055;-88
2021/11/18 00:16:19;;;;;;;9.68;4.88;;;;;;;-145.06;0.00;60892.56;4905409;28;20028;-88
2021/11/18 00:18:58;;;;;;;9.60;5.53;;;;;;;-145.06;0.00;60892.56;4903097;28;20040;-88
2021/11/18 00:21:40;;;;;;;9.60;4.53;;;;;;;-145.06;0.00;60892.56;4909021;28;20031;-88
2021/11/18 00:24:18;;;;;;;7.70;4.32;;;;;;;-145.06;0.00;60892.56;4904855;28;20028;-87
2021/11/18 00:26:57;;;;;;;7.70;4.20;;;;;;;-145.06;0.00;60892.56;4910070;28;20024;-86
2021/11/18 00:29:37;;;;;;;9.27;4.50;;;;;;;-145.06;0.00;60892.56;4917861;28;20016;-88
2021/11/18 00:32:16;;;;;;;7.70;4.82;;;;;;;-145.06;0.00;60892.56;4911228;28;20040;-86
2021/11/18 00:34:55;;;;;;;7.00;4.43;;;;;;;-145.06;0.00;60892.56;4911212;28;20118;-87
2021/11/18 00:37:34;;;;;;;8.30;4.70;;;;;;;-145.06;0.00;60892.56;4896069;28;20119;-87
2021/11/18 00:40:16;;;;;;;7.95;4.40;;;;;;;-145.06;0.00;60892.56;4896431;28;20394;-87
2021/11/18 00:42:56;;;;;;;6.80;4.15;;;;;;;-145.06;0.00;60892.56;4907868;28;20028;-87
2021/11/18 00:45:35;;;;;;;;;;;;;;;-145.06;0.00;60892.56;4900421;28;20032;-87
2021/11/18 00:48:15;;;;;;;6.90;3.90;;;;;;;-145.06;0.00;60892.56;4898759;28;19912;-88
2021/11/18 00:50:55;;;;;;;;;;;;;;;-145.06;0.00;60892.56;4903801;28;20029;-87
2021/11/18 00:53:41;;;;;;;6.57;3.58;;;;;;;-145.06;0.00;60892.56;4903977;28;19916;-87
2021/11/18 00:56:22;;;;;;;10.77;5.20;;;;;;;-145.06;0.00;60892.56;4908792;28;20106;-88
2021/11/18 00:59:02;;;;;;;9.15;4.60;;;;;;;8.39;0.00;60892.56;4905241;28;20359;-88
2021/11/18 01:01:45;;;;;;;8.35;4.70;;;;;;;-145.06;0.00;60892.56;4911582;28;20036;-87
2021/11/18 01:04:27;;;;;;;6.63;3.85;;;;;;;8.38;0.00;60892.56;4911553;28;20032;-87
2021/11/18 01:07:07;;;;;;;7.35;3.67;;;;;;;-145.06;0.00;60892.56;4907165;28;20607;-87
2021/11/18 01:09:46;;;;;;;7.03;4.05;;;;;;;-145.06;0.00;60892.56;4909325;28;20036;-86
2021/11/18 01:12:25;;;;;;;6.50;3.95;;;;;;;8.73;0.00;60892.56;4907589;28;20024;-88
2021/11/18 01:15:08;;;;;;;8.80;4.05;;;;;;;-145.06;0.00;60892.56;4911645;28;20040;-88
2021/11/18 01:17:48;;;;;;;7.90;4.15;;;;;;;-145.06;0.00;60892.56;4896381;28;20036;-87
2021/11/18 01:20:28;;;;;;;6.45;3.95;;;;;;;-145.06;0.00;60892.56;4901188;28;20119;-88
2021/11/18 01:23:11;;;;;;;7.72;3.90;;;;;;;-145.06;0.00;60892.56;4902832;28;20495;-87
2021/11/18 01:25:50;;;;;;;8.32;3.67;;;;;;;-145.06;0.00;60892.56;4904516;28;20068;-87
2021/11/18 01:28:29;;;;;;;6.53;3.67;;;;;;;-145.06;0.00;60892.56;4900923;28;20032;-87
2021/11/18 01:31:09;;;;;;;8.60;4.50;;;;;;;-145.06;0.00;60892.56;4901585;28;20040;-87
2021/11/18 01:33:48;;;;;;;11.50;4.90;;;;;;;8.36;0.00;60892.56;4905584;28;20031;-87
2021/11/18 01:36:28;;;;;;;7.72;4.45;;;;;;;-145.06;0.00;60892.56;4899202;28;20032;-88
2021/11/18 01:39:07;;;;;;;10.77;4.85;;;;;;;8.34;0.00;60892.56;4900146;28;20028;-88
2021/11/18 01:41:47;;;;;;;10.30;4.03;;;;;;;8.37;0.00;60892.56;4901724;28;20119;-88
2021/11/18 01:44:37;;;;;;;7.17;4.30;;;;;;;8.32;0.00;60892.56;4900534;28;20016;-87
2021/11/18 01:47:16;;;;;;;9.25;4.57;;;;;;;8.33;0.00;60892.56;4900400;28;20044;-88
2021/11/18 01:49:57;;;;;;;;;;;;;;;-145.06;0.00;60892.56;4902420;28;20064;-87
2021/11/18 01:52:36;;;;;;;6.63;3.75;;;;;;;8.27;0.00;60892.56;4899172;28;20262;-87
2021/11/18 01:55:17;;;;;;;5.82;3.78;;;;;;;8.41;0.00;60892.56;4905548;28;20366;-88
2021/11/18 01:57:56;;;;;;;6.63;3.72;;;;;;;8.41;0.00;60892.56;4901785;28;20037;-88
2021/11/18 02:00:42;;;;;;;10.63;5.20;;;;;;;-145.06;0.00;60892.56;4900358;28;20041;-87
2021/11/18 02:03:21;;;;;;;10.38;5.15;;;;;;;8.18;0.00;60892.56;4902318;28;20017;-87
2021/11/18 02:06:07;;;;;;;11.38;5.20;;;;;;;-145.06;0.00;60892.56;4899325;28;20043;-88
2021/11/18 02:08:46;;;;;;;10.20;5.55;;;;;;;-145.06;0.00;60892.56;4902079;28;20032;-87
2021/11/18 02:11:28;;;;;;;11.10;5.65;;;;;;;-145.06;0.00;60892.56;4909897;28;20032;-88
2021/11/18 02:14:16;;;;;;;11.13;5.43;;;;;;;8.25;0.00;60892.56;4904426;28;20032;-88
2021/11/18 02:17:01;;;;;;;8.95;4.90;;;;;;;8.25;0.00;60892.56;4900895;28;20845;-88
2021/11/18 02:20:03;;;;;;;9.77;4.78;;;;;;;8.08;0.00;60892.56;4903819;28;20522;-87
2021/11/18 02:22:42;;;;;;;8.75;4.30;;;;;;;8.07;0.00;60892.56;4903566;28;20368;-87
2021/11/18 02:25:29;;;;;;;8.48;4.88;;;;;;;-145.06;0.00;60892.56;4909459;28;20037;-88
2021/11/18 02:28:08;;;;;;;8.88;4.70;;;;;;;-145.06;0.00;60892.56;4907143;28;20040;-87
2021/11/18 02:30:50;;;;;;;12.82;5.03;;;;;;;8.01;0.00;60892.56;4910382;28;20031;-89
2021/11/18 02:33:30;;;;;;;8.02;4.32;;;;;;;8.00;0.00;60892.56;4903114;28;20024;-87
2021/11/18 02:36:09;;;;;;;10.07;4.28;;;;;;;-145.06;0.00;60892.56;4904038;28;20032;-87
2021/11/18 02:38:49;;;;;;;7.60;4.05;;;;;;;-145.06;0.00;60892.56;4902869;28;20039;-88
2021/11/18 02:41:28;;;;;;;6.05;3.63;;;;;;;-145.06;0.00;60892.56;4904991;28;20024;-88
2021/11/18 02:44:07;;;;;;;7.63;4.25;;;;;;;-145.06;0.00;60892.56;4904115;28;20028;-88
2021/11/18 02:46:46;;;;;;;8.60;4.60;;;;;;;-145.06;0.00;60892.56;4907045;28;20032;-87
2021/11/18 02:49:25;;;;;;;6.82;4.00;;;;;;;7.91;0.00;60892.56;4904658;28;20028;-87
2021/11/18 02:52:04;;;;;;;8.97;4.03;;;;;;;10.68;0.00;60892.56;4907661;28;20374;-88
2021/11/18 02:54:44;;;;;;;8.80;3.78;;;;;;;-145.06;0.00;60892.56;4906353;28;20585;-88
2021/11/18 02:57:23;;;;;;;;;;;;;;;-145.06;0.00;60892.56;4907851;28;20489;-88
2021/11/18 03:00:16;;;;;;;6.90;3.00;;;;;;;187.52;0.00;60892.56;4903663;28;19956;-87
2021/11/18 03:02:56;;;;;;;6.35;3.25;;;;;;;-145.06;0.00;60892.56;4918189;28;20024;-88
2021/11/18 03:05:35;;;;;;;5.13;2.78;;;;;;;-145.06;0.00;60892.56;4909878;28;20040;-88
2021/11/18 03:08:16;;;;;;;5.13;2.90;;;;;;;7.84;0.00;60892.56;4910969;28;20036;-88
2021/11/18 03:10:57;;;;;;;6.72;3.63;;;;;;;7.92;0.00;60892.56;4904673;28;20716;-87
2021/11/18 03:13:36;;;;;;;6.18;3.15;;;;;;;7.83;0.00;60892.56;4910254;28;20032;-87
2021/11/18 03:16:16;;;;;;;6.78;3.40;;;;;;;-145.06;0.00;60892.56;4902074;28;20028;-87
2021/11/18 03:18:55;;;;;;;6.80;3.08;;;;;;;8.08;0.00;60892.56;4910662;28;20032;-88
2021/11/18 03:21:34;;;;;;;6.83;3.87;;;;;;;187.52;0.00;60892.56;4903684;28;20051;-87
2021/11/18 03:24:13;;;;;;;6.85;3.40;;;;;;;7.81;0.00;60892.56;4906475;28;20024;-88
2021/11/18 03:26:52;;;;;;;7.22;3.08;;;;;;;7.79;0.00;60892.56;4902320;28;20056;-86
2021/11/18 03:29:32;;;;;;;8.15;3.70;;;;;;;7.79;0.00;60892.56;4907022;28;20435;-87
2021/11/18 03:32:11;;;;;;;10.68;4.38;;;;;;;-145.06;0.00;60892.56;4907436;28;20027;-88
2021/11/18 03:34:50;;;;;;;7.65;3.30;;;;;;;-145.06;0.00;60892.56;4909644;28;20107;-88
2021/11/18 03:37:29;;;;;;;13.10;4.50;;;;;;;8.08;0.00;60892.56;4910881;28;20111;-87
2021/11/18 03:40:09;;;;;;;9.17;4.37;;;;;;;7.77;0.00;60892.56;4910789;28;20040;-88
2021/11/18 03:42:48;;;;;;;;;;;;;;;7.92;0.00;60892.56;4910210;28;20482;-87
2021/11/18 03:45:29;;;;;;;5.53;2.63;;;;;;;-145.06;0.00;60892.56;4916470;28;19920;-87
2021/11/18 03:48:09;;;;;;;4.38;2.45;;;;;;;-145.06;0.00;60892.56;4914606;28;20063;-87
2021/11/18 03:50:49;;;;;;;5.00;2.70;;;;;;;8.08;0.00;60892.56;4902748;28;20060;-88
2021/11/18 03:53:29;;;;;;;5.15;2.63;;;;;;;-145.06;0.00;60892.56;4903417;28;20488;-88
2021/11/18 03:56:11;;;;;;;5.97;2.33;;;;;;;-145.06;0.00;60892.56;4913027;28;20059;-87
2021/11/18 03:58:51;;;;;;;4.80;2.20;;;;;;;-145.06;0.00;60892.56;4908892;28;20028;-87
2021/11/18 04:01:30;;;;;;;4.65;2.20;;;;;;;-145.06;0.00;60892.56;4900879;28;20020;-87
2021/11/18 04:04:12;;;;;;;4.70;2.23;;;;;;;-145.06;0.00;60892.56;4917005;28;20032;-87
2021/11/18 04:06:51;;;;;;;5.72;2.17;;;;;;;-145.06;0.00;60892.56;4900782;28;20025;-88
2021/11/18 04:09:31;;;;;;;4.57;2.25;;;;;;;-145.06;0.00;60892.56;4903607;28;20032;-88
2021/11/18 04:12:13;;;;;;;5.97;2.40;;;;;;;-145.06;0.00;60892.56;4912517;28;20044;-88
2021/11/18 04:14:52;;;;;;;7.35;2.60;;;;;;;187.52;0.00;60892.56;4904708;28;20056;-88
2021/11/18 04:17:31;;;;;;;6.00;2.15;;;;;;;-145.06;0.00;60892.56;4905550;28;20587;-88
2021/11/18 04:20:12;;;;;;;4.37;2.30;;;;;;;-145.06;0.00;60892.56;4904983;28;20032;-87
2021/11/18 04:22:52;;;;;;;4.20;2.28;;;;;;;-145.06;0.00;60892.56;4911297;28;20060;-88
2021/11/18 04:25:35;;;;;;;3.72;1.92;;;;;;;-145.06;0.00;60892.56;4907397;28;20032;-87
2021/11/18 04:28:14;;;;;;;4.63;2.33;;;;;;;-145.06;0.00;60892.56;4906118;28;20024;-87
2021/11/18 04:30:59;;;;;;;;;;;;;;;-145.06;0.00;60892.56;4906843;28;20027;-88
2021/11/18 04:33:39;;;;;;;5.88;2.85;;;;;;;-145.06;0.00;60892.56;4902890;28;19916;-88
2021/11/18 04:36:21;;;;;;;5.40;2.60;;;;;;;-145.06;0.00;60892.56;4904959;28;20040;-86
2021/11/18 04:39:00;;;;;;;3.38;2.22;;;;;;;-145.06;0.00;60892.56;4903626;28;20230;-87
2021/11/18 04:41:39;;;;;;;6.47;2.55;;;;;;;-145.06;0.00;60892.56;4904604;28;20028;-86
2021/11/18 04:44:20;;;;;;;5.20;2.38;;;;;;;-145.06;0.00;60892.56;4900162;28;20032;-87
2021/11/18 04:47:00;;;;;;;7.57;2.70;;;;;;;-145.06;0.00;60892.56;4904168;28;20028;-87
2021/11/18 04:49:42;;;;;;;4.88;2.33;;;;;;;-145.06;0.00;60892.56;4902126;28;20032;-86
2021/11/18 04:52:22;;;;;;;4.53;2.05;;;;;;;-145.06;0.00;60892.56;4904634;28;20135;-86
2021/11/18 04:55:02;;;;;;;;;;;;;;;-145.06;0.00;60892.56;4915992;28;20621;-86
2021/11/18 04:57:41;;;;;;;4.20;1.80;;;;;;;-145.06;0.00;60892.56;4906724;28;19916;-87
2021/11/18 05:00:28;;;;;;;5.13;2.13;;;;;;;-145.06;0.00;60892.56;4915400;28;20780;-87
2021/11/18 05:03:08;;;;;;;5.53;2.20;;;;;;;-145.06;0.00;60892.56;4901212;28;20099;-86
2021/11/18 05:05:47;;;;;;;3.75;2.13;;;;;;;-145.06;0.00;60892.56;4905732;28;20478;-87
2021/11/18 05:08:26;;;;;;;6.47;2.33;;;;;;;7.76;0.00;60892.56;4905843;28;20036;-87
2021/11/18 05:11:05;;;;;;;5.60;2.67;;;;;;;8.08;0.00;60892.56;4900523;28;20028;-88
2021/11/18 05:13:45;;;;;;;5.93;2.20;;;;;;;187.52;0.00;60892.56;4901790;28;20025;-87
2021/11/18 05:16:24;;;;;;;;;;;;;;;7.92;0.00;60892.56;4909975;28;20035;-87
2021/11/18 05:19:03;;;;;;;3.67;1.73;;;;;;;-145.06;0.00;60892.56;4910482;28;19920;-87
2021/11/18 05:21:43;;;;;;;3.75;2.10;;;;;;;-145.06;0.00;60892.56;4905090;28;20028;-87
2021/11/18 05:24:21;;;;;;;3.27;1.90;;;;;;;7.88;0.00;60892.56;4910607;28;20371;-87
2021/11/18 05:27:01;;;;;;;4.03;1.87;;;;;;;-145.06;0.00;60892.56;4901311;28;20036;-86
2021/11/18 05:29:41;;;;;;;;;;;;;;;7.92;0.00;60892.56;4908412;28;20350;-87
2021/11/18 05:32:20;;;;;;;3.35;2.05;;;;;;;-145.06;0.00;60892.56;4902967;28;19912;-87
2021/11/18 05:34:59;;;;;;;4.40;2.20;;;;;;;7.88;0.00;60892.56;4898474;28;20029;-88
2021/11/18 05:37:38;;;;;;;5.28;2.22;;;;;;;-145.06;0.00;60892.56;4907578;28;20247;-87
2021/11/18 05:40:19;;;;;;;5.15;2.60;;;;;;;7.92;0.00;60892.56;4906637;28;20051;-87
2021/11/18 05:42:58;;;;;;;5.18;2.40;;;;;;;-145.06;0.00;60892.56;4901891;28;20475;-87
2021/11/18 05:45:37;;;;;;;8.15;2.67;;;;;;;7.91;0.00;80164.13;4902432;28;20055;-86
2021/11/18 05:48:18;;;;;;;4.40;2.35;;;;;;;7.92;0.00;60892.56;4907629;28;20028;-88
2021/11/18 05:50:59;;;;;;;6.35;2.70;;;;;;;8.00;0.00;60892.56;4909410;28;20540;-87
2021/11/18 05:53:41;;;;;;;5.22;2.60;;;;;;;7.93;0.00;60892.56;4914603;28;20095;-88
2021/11/18 05:56:22;;;;;;;6.85;2.47;;;;;;;21.08;0.00;60892.56;4906345;28;20370;-87
2021/11/18 05:59:02;;;;;;;5.15;2.15;;;;;;;8.00;0.00;60892.56;4903867;28;20516;-86
2021/11/18 06:01:41;;;;;;;;;;;;;;;8.00;0.00;60892.56;4900119;28;20036;-88
2021/11/18 06:04:21;;;;;;;3.92;1.83;;;;;;;8.00;0.00;60892.56;4916342;28;19921;-87
2021/11/18 06:07:00;;;;;;;4.95;2.30;;;;;;;-145.06;0.00;60892.56;4918451;28;20047;-87
2021/11/18 06:09:39;;;;;;;2.87;2.03;;;;;;;-145.06;0.00;60892.56;4916117;28;20036;-88
2021/11/18 06:12:19;;;;;;;5.28;2.10;;;;;;;-145.06;0.00;60892.56;4914275;28;20658;-87
2021/11/18 06:14:58;;;;;;;;;;;;;;;7.95;0.00;60892.56;4914303;28;20040;-87
2021/11/18 06:17:38;;;;;;;4.70;2.50;;;;;;;-145.06;0.00;60892.56;4908112;28;19947;-87
2021/11/18 06:20:17;;;;;;;4.53;2.30;;;;;;;7.94;0.00;60892.56;4912653;28;20032;-88
2021/11/18 06:22:56;;;;;;;;;;;;;;;7.92;0.00;60892.56;4915228;28;20028;-87
2021/11/18 06:25:37;;;;;;;3.88;2.10;;;;;;;7.91;0.00;60892.56;4904633;28;19916;-87
2021/11/18 06:28:15;;;;;;;;;;;;;;;7.89;0.00;60892.56;4907656;28;20055;-87
2021/11/18 06:30:58;;;;;;;6.07;2.50;;;;;;;-145.06;0.00;60892.56;4920232;28;19915;-88
2021/11/18 06:33:38;;;;;;;5.35;2.60;;;;;;;-145.06;0.00;60892.56;4901444;28;20028;-88
2021/11/18 06:36:18;;;;;;;4.07;2.15;;;;;;;7.90;0.00;60892.56;4911379;28;20912;-86
2021/11/18 06:38:57;;;;;;;4.90;2.30;;;;;;;-145.06;0.00;60892.56;4923436;28;20062;-87
2021/11/18 06:41:36;;;;;;;3.78;2.40;;;;;;;21.08;0.00;60892.56;4900680;28;20043;-87
2021/11/18 06:44:16;;;;;;;6.40;2.97;;;;;;;7.96;0.00;60892.56;4907197;28;20028;-88
2021/11/18 06:46:55;;;;;;;;;;;;;;;7.95;0.00;60892.56;4906779;28;20041;-88
2021/11/18 06:49:34;;;;;;;4.87;2.70;;;;;;;-145.06;0.00;60892.56;4907935;28;19912;-87
2021/11/18 06:52:16;;;;;;;6.72;2.80;;;;;;;-145.06;0.00;60892.56;4909368;28;20024;-87
2021/11/18 06:54:55;;;;;;;6.50;2.30;;;;;;;187.52;0.00;60892.56;4905564;28;20028;-87
2021/11/18 06:57:35;;;;;;;4.35;1.90;;;;;;;-145.06;0.00;60892.56;4912443;28;20055;-87
2021/11/18 07:00:14;;;;;;;2.90;1.80;;;;;;;-145.06;0.00;60892.56;4915108;28;20032;-87
2021/11/18 07:02:53;;;;;;;3.88;1.80;;;;;;;-145.06;0.00;60892.56;4915684;28;20033;-87
2021/11/18 07:05:32;;;;;;;5.78;2.60;;;;;;;-145.06;0.00;60892.56;4910835;28;20618;-88
2021/11/18 07:08:11;;;;;;;5.55;2.67;;;;;;;-145.06;0.00;60892.56;4907852;28;20040;-87
2021/11/18 07:10:50;;;;;;;6.72;2.25;;;;;;;-145.06;0.00;60892.56;4908093;28;20401;-87
2021/11/18 07:13:33;;;;;;;4.55;2.53;;;;;;;-145.06;0.00;60892.56;4905919;28;20103;-88
2021/11/18 07:16:16;;;;;;;5.80;2.47;;;;;;;-145.06;0.00;60892.56;4906174;28;20466;-87
2021/11/18 07:18:56;;;;;;;4.70;2.63;;;;;;;-145.06;0.00;60892.56;4914818;28;20032;-88
2021/11/18 07:21:36;;;;;;;4.57;2.45;;;;;;;-145.06;0.00;60892.56;4908457;28;20355;-88
2021/11/18 07:24:17;;;;;;;4.95;2.38;;;;;;;-145.06;0.00;60892.56;4908827;28;20025;-88
2021/11/18 07:26:56;;;;;;;4.55;2.30;;;;;;;9.38;0.00;60892.56;4928711;28;20032;-88
2021/11/18 07:29:36;;;;;;;6.35;2.67;;;;;;;-145.06;0.00;60892.56;4936481;28;20027;-88
2021/11/18 07:32:15;;;;;;;5.78;2.50;;;;;;;8.32;0.00;60892.56;4916741;28;20035;-88
2021/11/18 07:34:54;;;;;;;6.32;2.30;;;;;;;-145.06;0.00;60892.56;4915871;28;20107;-88
2021/11/18 07:37:34;;;;;;;4.27;1.93;;;;;;;8.73;0.00;60892.56;4917144;28;20036;-87
2021/11/18 07:40:16;;;;;;;5.00;2.13;;;;;;;8.39;0.00;60892.56;4924050;28;20028;-87
2021/11/18 07:42:56;;;;;;;4.18;2.20;;;;;;;-145.06;0.00;60892.56;4909637;28;20035;-87
2021/11/18 07:45:35;;;;;;;;;;;;;;;-145.06;0.00;60892.56;4900003;28;20379;-88
2021/11/18 07:48:15;;;;;;;4.18;2.13;;;;;;;-145.06;0.00;60892.56;4898727;28;20353;-88
2021/11/18 07:50:55;;;;;;;4.50;2.00;;;;;;;-145.06;0.00;60892.56;4906726;28;20032;-88
2021/11/18 07:53:34;;;;;;;5.28;2.00;;;;;;;-145.06;0.00;60892.56;4904007;28;20107;-87
2021/11/18 07:56:15;;;;;;;3.95;2.10;;;;;;;-145.06;0.00;60892.56;4915401;28;20040;-87
2021/11/18 07:58:54;;;;;;;3.92;1.77;;;;;;;-145.06;0.00;60892.56;4910683;28;20024;-87
2021/11/18 08:01:33;;;;;;;2.45;1.83;;;;;;;-145.06;0.00;60892.56;4920967;28;20027;-87
2021/11/18 08:04:12;;;;;;;7.10;1.90;;;;;;;-145.06;0.00;60892.56;4915759;28;20024;-86
2021/11/18 08:06:51;;;;;;;3.65;2.00;;;;;;;-145.06;0.00;60892.56;4910950;28;20036;-88
2021/11/18 08:09:30;;;;;;;5.00;2.63;;;;;;;-145.06;0.00;60892.56;4915485;28;20485;-87
2021/11/18 08:12:10;;;;;;;6.47;2.23;;;;;;;-145.06;0.00;60892.56;4911837;28;20032;-88
2021/11/18 08:14:49;;;;;;;3.53;2.00;;;;;;;-145.06;0.00;60892.56;4915471;28;20274;-87
2021/11/18 08:17:28;;;;;;;5.22;2.47;;;;;;;-145.06;0.00;60892.56;4914907;28;20067;-88
2021/11/18 08:20:08;;;;;;;5.00;2.15;;;;;;;-145.06;0.00;60892.56;4914640;28;20048;-88
2021/11/18 08:22:47;;;;;;;;;;;;;;;-145.06;0.00;60892.56;4897489;28;20040;-88
2021/11/18 08:25:29;;;;;;;4.83;2.43;;;;;;;-145.06;0.00;60892.56;4912144;28;20388;-88
2021/11/18 08:28:08;;;;;;;3.00;1.70;;;;;;;-145.06;0.00;60892.56;4915643;28;20273;-88
2021/11/18 08:30:47;;;;;;;;;;;;;;;-145.06;0.00;60892.56;4921817;28;20036;-88
2021/11/18 08:33:27;;;;;;;6.82;2.38;;;;;;;8.87;0.00;60892.56;4904385;28;19909;-88
2021/11/18 08:36:06;;;;;;;9.68;2.95;;;;;;;8.94;0.00;60892.56;4917681;28;20032;-87
2021/11/18 08:38:46;;;;;;;6.77;2.63;;;;;;;-145.06;0.00;60892.56;4895602;28;20111;-88
2021/11/18 08:41:25;;;;;;;3.78;2.10;;;;;;;-145.06;0.00;60892.56;4911103;28;20027;-88
2021/11/18 08:44:04;;;;;;;6.90;2.42;;;;;;;-145.06;0.00;60892.56;4921930;28;20374;-88
2021/11/18 08:46:45;;;;;;;4.25;2.00;;;;;;;-145.06;0.00;60892.56;4914809;28;20036;-88
2021/11/18 08:49:25;;;;;;;4.63;1.90;;;;;;;-145.06;0.00;60892.56;4923703;28;20382;-89
2021/11/18 08:52:10;;;;;;;5.72;2.33;;;;;;;9.11;0.00;60892.56;4901304;28;20068;-88
2021/11/18 08:54:56;;;;;;;4.60;2.00;;;;;;;-145.06;0.00;60892.56;4914193;28;20032;-88
2021/11/18 08:57:37;;;;;;;5.65;2.00;;;;;;;-145.06;0.00;60892.56;4913692;28;20028;-88
2021/11/18 09:00:27;;;;;;;6.18;1.83;;;;;;;-145.06;0.00;60892.56;4922326;28;20028;-88
2021/11/18 09:03:07;;;;;;;4.32;1.65;;;;;;;-145.06;0.00;60892.56;4901367;28;20032;-88
2021/11/18 09:05:48;;;;;;;4.82;1.88;;;;;;;-145.06;0.00;60892.56;4923682;28;20473;-89
2021/11/18 09:08:27;;;;;;;4.80;1.90;;;;;;;-145.06;0.00;60892.56;4914041;28;20115;-88
2021/11/18 09:11:09;;;;;;;5.13;2.03;;;;;;;-145.06;0.00;60892.56;4910376;28;20367;-88
2021/11/18 09:13:50;;;;;;;4.90;1.90;;;;;;;-145.06;0.00;60892.56;4929444;28;20024;-88
2021/11/18 09:16:32;;;;;;;4.10;1.73;;;;;;;-145.06;0.00;60892.56;4929351;28;20059;-88
2021/11/18 09:19:15;;;;;;;5.00;2.42;;;;;;;-145.06;0.00;60892.56;4914296;28;20035;-89
2021/11/18 09:21:55;;;;;;;4.25;1.98;;;;;;;-145.06;0.00;60892.56;4934863;28;20421;-88
2021/11/18 09:24:37;;;;;;;3.65;1.80;;;;;;;-145.06;0.00;60892.56;4917464;28;20016;-89
2021/11/18 09:27:20;;;;;;;10.85;2.80;;;;;;;-145.06;0.00;60892.56;4916650;28;20037;-87
2021/11/18 09:30:03;;;;;;;4.20;2.13;;;;;;;-145.06;0.00;60892.56;4902993;28;20028;-87
2021/11/18 09:32:43;;;;;;;6.13;2.10;;;;;;;-145.06;0.00;60892.56;4915831;28;20362;-89
2021/11/18 09:35:26;;;;;;;5.53;2.13;;;;;;;-145.06;0.00;60892.56;4914565;28;20023;-87
2021/11/18 09:38:06;;;;;;;5.80;2.38;;;;;;;-145.06;0.00;60892.56;4912222;28;20032;-89
2021/11/18 09:40:56;;;;;;;5.63;2.08;;;;;;;-145.06;0.00;60892.56;4923163;28;20063;-88
2021/11/18 09:43:35;;;;;;;3.83;2.08;;;;;;;-145.06;0.00;60892.56;4928871;28;20023;-89
2021/11/18 09:46:33;;;;;;;7.60;2.33;;;;;;;-145.06;0.00;60892.56;4923010;28;20139;-88
2021/11/18 09:49:24;;;;;;;5.32;2.35;;;;;;;-145.06;0.00;60892.56;4916658;28;20118;-89
2021/11/18 09:52:26;;;;;;;5.40;2.10;;;;;;;-145.06;0.00;60892.56;4928193;28;20024;-88
2021/11/18 09:55:20;;;;;;;4.13;1.50;;;;;;;-145.06;0.00;60892.56;4921669;28;20031;-89
2021/11/18 09:58:04;;;;;;;8.48;2.15;;;;;;;-145.06;0.00;60892.56;4922690;28;20024;-88
2021/11/18 10:01:05;;;;;;;5.72;1.98;;;;;;;-145.06;0.00;60892.56;4912768;28;20028;-88
2021/11/18 10:03:59;;;;;;;4.80;1.90;;;;;;;-145.06;0.00;60892.56;4903974;28;20473;-89
2021/11/18 10:06:40;;;;;;;4.00;1.75;;;;;;;-145.06;0.00;60892.56;4913096;28;20044;-89
2021/11/18 10:09:42;;;;;;;5.25;1.88;;;;;;;-145.06;0.00;60892.56;4904811;28;20525;-88
2021/11/18 10:12:54;;;;;;;4.65;1.73;;;;;;;-145.06;0.00;60892.56;4917704;28;20532;-88
2021/11/18 10:15:45;;;;;;;6.50;2.20;;;;;;;-145.06;0.00;60892.56;4912731;28;20370;-88
2021/11/18 10:18:31;;;;;;;7.45;2.47;;;;;;;-145.06;0.00;60892.56;4923283;28;20028;-89
2021/11/18 10:21:22;;;;;;;10.88;2.85;;;;;;;-145.06;0.00;60892.56;4919990;28;20078;-89
2021/11/18 10:24:13;;;;;;;8.20;3.10;;;;;;;-145.06;0.00;60892.56;4910779;28;20028;-89
2021/11/18 10:26:56;;;;;;;7.53;2.60;;;;;;;-145.06;0.00;60892.56;4912993;28;20052;-88
2021/11/18 10:29:52;;;;;;;4.63;2.47;;;;;;;-145.06;0.00;60892.56;4910034;28;20048;-89
2021/11/18 10:32:45;;;;;;;6.80;2.35;;;;;;;-145.06;0.00;60892.56;4906158;28;20036;-89
2021/11/18 10:35:44;;;;;;;6.50;2.70;;;;;;;-145.06;0.00;60892.56;4905508;28;20446;-89
2021/11/18 10:38:36;;;;;;;5.72;2.30;;;;;;;-145.06;0.00;60892.56;4917313;28;20031;-89
2021/11/18 10:41:15;;;;;;;4.53;1.67;;;;;;;-145.06;0.00;60892.56;4899792;28;20072;-89
2021/11/18 10:44:17;;;;;;;5.40;2.30;;;;;;;-145.06;0.00;60892.56;4910558;28;20036;-89
2021/11/18 10:47:08;;;;;;;6.03;2.00;;;;;;;-145.06;0.00;60892.56;4910405;28;20032;-89
2021/11/18 10:50:03;;;;;;;5.20;2.20;;;;;;;-145.06;0.00;60892.56;4919216;28;20031;-89
2021/11/18 10:52:48;;;;;;;5.03;1.90;;;;;;;-145.06;0.00;60892.56;4901196;28;20370;-89
2021/11/18 10:55:35;;;;;;;8.75;2.47;;;;;;;-145.06;0.00;60892.56;4918893;28;20024;-89
2021/11/18 10:58:26;;;;;;;5.35;2.15;;;;;;;-145.06;0.00;60892.56;4934386;28;20028;-88
2021/11/18 11:01:25;;;;;;;7.35;2.20;;;;;;;-145.06;0.00;60892.56;4912646;28;20036;-88
2021/11/18 11:04:10;;;;;;;6.43;2.38;;;;;;;-145.06;0.00;60892.56;4935879;28;20024;-88
2021/11/18 11:06:53;;;;;;;10.13;2.85;;;;;;;-145.06;0.00;60892.56;4912837;28;20036;-88
2021/11/18 11:09:35;;;;;;;4.05;1.80;;;;;;;-145.06;0.00;60892.56;4927404;28;20102;-88
2021/11/18 11:12:31;;;;;;;4.10;1.60;;;;;;;-145.06;0.00;60892.56;4918033;28;20035;-89
2021/11/18 11:15:32;;;;;;;8.05;2.63;;;;;;;11.72;0.00;60892.56;4908061;28;20024;-89
2021/11/18 11:18:22;;;;;;;7.35;2.35;;;;;;;-145.06;0.00;60892.56;4915377;28;20665;-89
2021/11/18 11:21:24;;;;;;;5.65;2.03;;;;;;;11.98;0.00;60892.56;4915652;28;20037;-88
2021/11/18 11:24:31;;;;;;;6.47;2.30;;;;;;;11.92;0.00;60892.56;4905422;28;20063;-89
2021/11/18 11:27:46;;;;;;;6.45;2.28;;;;;;;-145.06;0.00;60892.56;4914799;28;20609;-88
2021/11/18 11:31:04;;;;;;;5.40;2.15;;;;;;;-145.06;0.00;60892.56;4914293;28;20027;-88
2021/11/18 11:34:07;;;;;;;5.20;1.77;;;;;;;-145.06;0.00;60892.56;4897296;28;20044;-88
2021/11/18 11:36:57;;;;;;;6.82;2.08;;;;;;;-145.06;0.00;60892.56;4893933;28;20040;-88
2021/11/18 11:39:59;;;;;;;8.15;2.17;;;;;;;-145.06;0.00;60892.56;4913950;28;20028;-88
2021/11/18 11:42:39;;;;;;;6.88;2.75;;;;;;;-145.06;0.00;60892.56;4918389;28;20035;-87
2021/11/18 11:45:47;;;;;;;8.40;2.38;;;;;;;-145.06;0.00;60892.56;4933992;28;20020;-88
2021/11/18 11:48:56;;;;;;;8.25;2.53;;;;;;;-145.06;0.00;60892.56;4912001;28;20032;-87
2021/11/18 11:51:48;;;;;;;8.30;2.40;;;;;;;-145.06;0.00;60892.56;4914125;28;20025;-88
2021/11/18 11:55:03;;;;;;;6.57;2.28;;;;;;;-145.06;0.00;60892.56;4922007;28;20261;-88
2021/11/18 11:58:08;;;;;;;5.65;1.98;;;;;;;-145.06;0.00;60892.56;4906348;28;20028;-88
2021/11/18 12:00:54;;;;;;;4.82;2.22;;;;;;;-145.06;0.00;60892.56;4908627;28;20055;-87
2021/11/18 12:03:57;;;;;;;5.10;1.75;;;;;;;-145.06;0.00;60892.56;4909544;28;20107;-88
2021/11/18 12:06:48;;;;;;;4.38;1.67;;;;;;;-145.06;0.00;60892.56;4916331;28;20413;-89
2021/11/18 12:09:44;;;;;;;6.85;2.20;;;;;;;-145.06;0.00;60892.56;4904127;28;20033;-88
2021/11/18 12:12:39;;;;;;;8.20;2.85;;;;;;;-145.06;0.00;60892.56;4919238;28;20088;-87
2021/11/18 12:15:21;;;;;;;6.15;2.22;;;;;;;-145.06;0.00;60892.56;4913614;28;20056;-89
2021/11/18 12:18:18;;;;;;;6.00;2.20;;;;;;;-145.06;0.00;60892.56;4899567;28;20033;-88
2021/11/18 12:20:59;;;;;;;4.32;1.83;;;;;;;-145.06;0.00;60892.56;4911728;28;20020;-88
2021/11/18 12:24:14;;;;;;;4.60;1.70;;;;;;;-145.06;0.00;60892.56;4903491;28;20047;-88
2021/11/18 12:27:20;;;;;;;5.35;1.88;;;;;;;-145.06;0.00;60892.56;4907962;28;20366;-88
2021/11/18 12:30:41;;;;;;;5.15;1.50;;;;;;;-145.06;0.00;60892.56;4919754;28;20031;-87
2021/11/18 12:33:20;;;;;;;5.35;2.10;;;;;;;-145.06;0.00;60892.56;4912745;28;20055;-87
2021/11/18 12:36:24;;;;;;;7.38;2.05;;;;;;;-145.06;0.00;60892.56;4914832;28;20036;-88
2021/11/18 12:39:39;;;;;;;7.07;2.35;;;;;;;-145.06;0.00;60892.56;4903471;28;20067;-88
2021/11/18 12:42:18;;;;;;;10.27;3.05;;;;;;;-145.06;0.00;60892.56;4905096;28;20036;-89
2021/11/18 12:45:36;;;;;;;7.68;2.35;;;;;;;-145.06;0.00;60892.56;4917141;28;20036;-88
2021/11/18 12:48:23;;;;;;;3.55;1.58;;;;;;;-145.06;0.00;60892.56;4898921;28;20036;-88
2021/11/18 12:51:02;;;;;;;5.82;2.15;;;;;;;-145.06;0.00;60892.56;4905241;28;20039;-88